Time;durP1;ratioP1;P1;durP2;ratioP2;P2;SDS_P1;SDS_P2;PMS_P1;PMS_P2;Temp;Humidity;BMP_temperature;BMP_pressure;BME280_temperature;BME280_humidity;BME280_pressure;Samples;Min_cycle;Max_cycle;Signal;HPM_P1;HPM_P2
2021/09/21 00:02:22;;;;;;;0.40;0.10;;;16.00;99.90;;;;;;2620810;46;20375;-73
2021/09/21 00:04:48;;;;;;;0.73;0.20;;;15.80;99.90;;;;;;2619903;47;20382;-74
2021/09/21 00:07:14;;;;;;;0.60;0.10;;;15.70;99.90;;;;;;2622188;54;20339;-73
2021/09/21 00:09:41;;;;;;;0.35;0.10;;;15.60;99.90;;;;;;2622102;54;20347;-73
2021/09/21 00:12:09;;;;;;;0.90;0.10;;;15.50;99.90;;;;;;2622110;39;20764;-72
2021/09/21 00:14:37;;;;;;;0.47;0.10;;;15.50;99.90;;;;;;2619505;54;20358;-74
2021/09/21 00:17:03;;;;;;;0.43;0.20;;;15.50;99.90;;;;;;2618009;54;20397;-73
2021/09/21 00:19:32;;;;;;;1.00;0.20;;;15.40;99.90;;;;;;2620124;54;20350;-72
2021/09/21 00:21:58;;;;;;;1.27;0.22;;;15.40;99.90;;;;;;2619054;54;20933;-70
2021/09/21 00:24:24;;;;;;;0.50;0.20;;;15.40;99.90;;;;;;2619890;54;20355;-75
2021/09/21 00:26:50;;;;;;;0.40;0.10;;;15.40;99.90;;;;;;2619623;54;20367;-70
2021/09/21 00:29:19;;;;;;;0.35;0.10;;;15.40;99.90;;;;;;2621134;54;20363;-72
2021/09/21 00:31:49;;;;;;;0.30;0.10;;;15.40;99.90;;;;;;2619861;54;20343;-69
2021/09/21 00:34:16;;;;;;;0.22;0.10;;;15.40;99.90;;;;;;2622786;39;20726;-73
2021/09/21 00:36:42;;;;;;;0.13;0.10;;;15.40;99.90;;;;;;2620959;39;20796;-71
2021/09/21 00:39:10;;;;;;;0.22;0.10;;;15.50;99.90;;;;;;2620365;54;20847;-73
2021/09/21 00:41:37;;;;;;;0.30;0.20;;;15.50;99.90;;;;;;2620928;54;20889;-70
2021/09/21 00:44:03;;;;;;;0.80;0.20;;;15.50;99.90;;;;;;2620925;46;20391;-73
2021/09/21 00:46:33;;;;;;;0.20;0.10;;;15.50;99.90;;;;;;2619693;54;20982;-73
2021/09/21 00:48:59;;;;;;;0.40;0.20;;;15.50;99.90;;;;;;2619190;39;20727;-73
2021/09/21 00:51:25;;;;;;;0.20;0.10;;;15.50;99.90;;;;;;2620812;54;20462;-74
2021/09/21 00:53:53;;;;;;;0.25;0.10;;;15.50;99.90;;;;;;2619894;54;20376;-70
2021/09/21 00:56:19;;;;;;;0.90;0.10;;;15.40;99.90;;;;;;2618706;54;20354;-73
2021/09/21 00:58:45;;;;;;;0.22;0.20;;;15.40;99.90;;;;;;2618966;54;20343;-72
2021/09/21 17:21:49;;;;;;;2.15;0.40;;;14.40;99.90;;;;;;2614538;39;27571;-67
2021/09/21 17:24:15;;;;;;;1.17;0.30;;;20.50;99.90;;;;;;2617503;54;20458;-73
2021/09/21 17:26:41;;;;;;;1.30;0.47;;;20.20;99.90;;;;;;2618070;39;20749;-71
2021/09/21 17:29:12;;;;;;;0.70;0.25;;;20.10;99.90;;;;;;2617108;54;20347;-71
2021/09/21 17:31:38;;;;;;;0.47;0.30;;;20.00;99.90;;;;;;2617059;54;20343;-72
2021/09/21 17:34:04;;;;;;;0.77;0.20;;;20.00;99.90;;;;;;2617042;54;20343;-71
2021/09/21 17:36:30;;;;;;;0.30;0.20;;;19.80;99.90;;;;;;2617713;39;20761;-73
2021/09/21 17:38:59;;;;;;;0.40;0.20;;;19.60;99.90;;;;;;2617129;54;20510;-73
2021/09/21 17:41:25;;;;;;;0.70;0.40;;;19.40;99.90;;;;;;2617768;54;20354;-71
2021/09/21 17:43:52;;;;;;;0.95;0.20;;;19.30;99.90;;;;;;2617886;54;20339;-73
2021/09/21 17:46:18;;;;;;;0.80;0.20;;;19.20;99.90;;;;;;2618124;46;20361;-70
2021/09/21 17:48:44;;;;;;;0.30;0.20;;;19.10;99.90;;;;;;2618669;39;20738;-71
2021/09/21 17:51:10;;;;;;;1.40;0.50;;;19.20;99.90;;;;;;2618153;54;20917;-72
2021/09/21 17:53:36;;;;;;;0.70;0.30;;;19.20;99.90;;;;;;2618023;54;20976;-72
2021/09/21 17:56:05;;;;;;;1.58;0.57;;;19.10;99.90;;;;;;2618987;54;20470;-73
2021/09/21 17:58:32;;;;;;;0.77;0.30;;;19.00;99.90;;;;;;2618160;54;20347;-73
2021/09/21 18:00:58;;;;;;;0.65;0.40;;;19.00;99.90;;;;;;2618946;54;20359;-71
2021/09/21 18:03:25;;;;;;;1.63;0.35;;;18.90;99.90;;;;;;2665474;36;20359;-72
2021/09/21 18:05:52;;;;;;;0.47;0.20;;;18.80;99.90;;;;;;2621185;54;20352;-74
2021/09/21 18:08:18;;;;;;;1.42;0.20;;;18.70;99.90;;;;;;2774624;36;100704;-74
2021/09/21 18:10:45;;;;;;;3.50;0.90;;;18.70;99.90;;;;;;2620349;54;20335;-71
2021/09/21 18:13:14;;;;;;;1.33;0.43;;;18.60;99.90;;;;;;2620450;54;20363;-73
2021/09/21 18:16:19;;;;;;;1.58;0.50;;;18.50;99.90;;;;;;2620126;54;20355;-72
2021/09/21 18:19:20;;;;;;;4.30;0.50;;;18.50;99.90;;;;;;2620391;54;20371;-73
2021/09/21 18:22:38;;;;;;;1.92;0.63;;;18.30;99.90;;;;;;2620704;54;20374;-71
2021/09/21 18:25:06;;;;;;;1.20;0.70;;;18.20;99.90;;;;;;2702829;36;20913;-73
2021/09/21 18:27:34;;;;;;;2.28;0.63;;;18.10;99.90;;;;;;2619301;54;20343;-69
2021/09/21 18:30:03;;;;;;;1.23;0.50;;;18.00;99.90;;;;;;2619435;31;20798;-70
2021/09/21 18:32:30;;;;;;;1.77;0.70;;;17.90;99.90;;;;;;2619058;54;20412;-72
2021/09/21 18:34:56;;;;;;;1.27;0.40;;;17.90;99.90;;;;;;2619168;54;20351;-74
2021/09/21 18:37:22;;;;;;;1.27;0.50;;;;;;;;;;2618943;54;20335;-71
2021/09/21 18:39:50;;;;;;;1.30;0.50;;;17.70;99.90;;;;;;2618859;54;20371;-72
2021/09/21 18:42:16;;;;;;;1.80;0.50;;;17.60;99.90;;;;;;2618938;54;20431;-73
2021/09/21 18:44:42;;;;;;;1.58;0.52;;;17.50;99.90;;;;;;2619010;54;20343;-71
2021/09/21 18:47:12;;;;;;;1.07;0.40;;;17.50;99.90;;;;;;2619125;54;20375;-71
2021/09/21 18:49:38;;;;;;;1.83;0.43;;;17.50;99.90;;;;;;2619035;54;20351;-71
2021/09/21 18:52:05;;;;;;;1.20;0.30;;;17.40;99.90;;;;;;2618772;54;20370;-71
2021/09/21 18:54:31;;;;;;;0.90;0.30;;;17.30;99.90;;;;;;2618936;46;20355;-73
2021/09/21 18:56:57;;;;;;;0.82;0.32;;;17.30;99.90;;;;;;2618962;54;20354;-71
2021/09/21 18:59:23;;;;;;;1.00;0.30;;;17.10;99.90;;;;;;2618741;54;20358;-73
2021/09/21 19:01:50;;;;;;;0.90;0.50;;;16.90;99.90;;;;;;2618704;54;20358;-72
2021/09/21 19:04:19;;;;;;;0.93;0.40;;;16.90;99.90;;;;;;2618291;46;20890;-71
2021/09/21 19:06:47;;;;;;;1.00;0.30;;;16.80;99.90;;;;;;2618727;54;20442;-71
2021/09/21 19:09:16;;;;;;;1.48;0.30;;;16.70;99.90;;;;;;2618229;47;20371;-71
2021/09/21 19:11:42;;;;;;;0.68;0.30;;;16.70;99.90;;;;;;2618830;54;20355;-70
2021/09/21 19:14:09;;;;;;;1.95;0.50;;;16.70;99.90;;;;;;2618280;46;20358;-74
2021/09/21 19:16:35;;;;;;;0.85;0.30;;;16.60;99.90;;;;;;2618246;47;20881;-70
2021/09/21 19:19:01;;;;;;;0.80;0.40;;;16.60;99.90;;;;;;2618915;54;20371;-71
2021/09/21 19:21:30;;;;;;;2.42;0.45;;;16.60;99.90;;;;;;2619081;54;20360;-72
2021/09/21 19:23:56;;;;;;;0.47;0.40;;;16.70;99.90;;;;;;2618894;54;20355;-71
2021/09/21 19:26:23;;;;;;;0.67;0.33;;;16.70;99.90;;;;;;2618645;54;20389;-71
2021/09/21 19:28:49;;;;;;;1.45;0.40;;;16.70;99.90;;;;;;2618701;54;20373;-72
2021/09/21 19:31:16;;;;;;;0.88;0.40;;;16.60;99.90;;;;;;2618582;54;20347;-73
2021/09/21 19:33:42;;;;;;;0.50;0.35;;;16.60;99.90;;;;;;2618671;54;20350;-71
2021/09/21 19:36:08;;;;;;;1.10;0.40;;;16.50;99.90;;;;;;2618656;54;20382;-73
2021/09/21 19:38:37;;;;;;;1.50;0.37;;;16.50;99.90;;;;;;2617976;47;20371;-72
2021/09/21 19:41:05;;;;;;;0.70;0.40;;;16.50;99.90;;;;;;2618761;54;20495;-72
2021/09/21 19:43:32;;;;;;;2.40;0.40;;;16.40;99.90;;;;;;2618604;54;20355;-70
2021/09/21 19:45:58;;;;;;;0.70;0.40;;;;;;;;;;2618875;54;20367;-71
2021/09/21 19:48:26;;;;;;;0.60;0.40;;;16.20;99.90;;;;;;2618336;46;20369;-74
2021/09/21 19:50:52;;;;;;;1.30;0.40;;;16.10;99.90;;;;;;2618162;46;20419;-73
2021/09/21 19:53:19;;;;;;;0.88;0.40;;;16.00;99.90;;;;;;2618065;47;20382;-73
2021/09/21 19:55:48;;;;;;;1.10;0.40;;;16.00;99.90;;;;;;2618694;54;20340;-73
2021/09/21 19:58:15;;;;;;;0.50;0.30;;;16.00;99.90;;;;;;2617937;47;20424;-72
2021/09/21 20:00:41;;;;;;;0.52;0.30;;;15.90;99.90;;;;;;2617558;47;20370;-72
2021/09/21 20:03:09;;;;;;;2.22;0.40;;;15.90;99.90;;;;;;2618480;54;20347;-71
2021/09/21 20:05:35;;;;;;;2.22;0.40;;;15.90;99.90;;;;;;2618423;54;20361;-72
2021/09/21 20:08:03;;;;;;;0.40;0.40;;;15.80;99.90;;;;;;2618695;54;20351;-73
2021/09/21 20:10:29;;;;;;;0.98;0.40;;;15.80;99.90;;;;;;2618424;54;20375;-72
2021/09/21 20:12:58;;;;;;;1.55;0.60;;;15.80;99.90;;;;;;2618666;54;20363;-74
2021/09/21 20:15:24;;;;;;;1.40;0.50;;;15.70;99.90;;;;;;2618856;31;20782;-75
2021/09/21 20:17:53;;;;;;;0.50;0.40;;;15.70;99.90;;;;;;2618494;54;20343;-72
2021/09/21 20:20:20;;;;;;;1.58;0.43;;;15.60;99.90;;;;;;2618459;54;20374;-72
2021/09/21 20:22:48;;;;;;;1.03;0.40;;;15.50;99.90;;;;;;2618322;47;20356;-74
2021/09/21 20:25:16;;;;;;;0.45;0.30;;;15.40;99.90;;;;;;2618756;54;20368;-73
2021/09/21 20:27:42;;;;;;;0.95;0.45;;;15.20;99.90;;;;;;2618165;47;20347;-73
2021/09/21 20:30:13;;;;;;;1.45;0.43;;;15.10;99.90;;;;;;2618489;54;20335;-72
2021/09/21 20:32:39;;;;;;;0.85;0.47;;;15.20;99.90;;;;;;2618003;47;20339;-71
2021/09/21 20:40:19;;;;;;;0.70;0.40;;;15.20;99.90;;;;;;2618851;54;20401;-73
2021/09/21 20:42:45;;;;;;;0.60;0.50;;;15.10;99.90;;;;;;2618505;54;20370;-72
2021/09/21 20:45:16;;;;;;;0.63;0.50;;;15.10;99.90;;;;;;2618587;54;20351;-72
2021/09/21 20:47:42;;;;;;;1.27;0.40;;;15.20;99.90;;;;;;2618691;54;20358;-71
2021/09/21 20:50:09;;;;;;;1.50;0.47;;;15.20;99.90;;;;;;2618340;54;20367;-71
2021/09/21 20:52:35;;;;;;;0.60;0.47;;;15.10;99.90;;;;;;2619069;54;20393;-74
2021/09/21 20:55:02;;;;;;;1.20;0.60;;;15.10;99.90;;;;;;2619113;39;20855;-73
2021/09/21 20:57:29;;;;;;;1.38;0.57;;;15.00;99.90;;;;;;2618814;54;20351;-74
2021/09/21 20:59:55;;;;;;;0.70;0.50;;;15.10;99.90;;;;;;2621088;39;20748;-73
2021/09/21 21:02:24;;;;;;;1.98;0.88;;;15.10;99.90;;;;;;2618677;54;20423;-73
2021/09/21 21:04:50;;;;;;;1.33;0.60;;;15.20;99.90;;;;;;2618188;47;20355;-73
2021/09/21 21:07:17;;;;;;;1.92;0.55;;;15.30;99.90;;;;;;2618583;47;20354;-72
2021/09/21 21:09:43;;;;;;;1.30;0.80;;;15.40;99.90;;;;;;2618456;54;20358;-70
2021/09/21 21:12:09;;;;;;;1.73;0.50;;;15.70;99.90;;;;;;2618352;54;20359;-75
2021/09/21 21:14:35;;;;;;;2.58;0.43;;;15.80;99.90;;;;;;2619365;54;20882;-72
2021/09/21 21:17:01;;;;;;;0.57;0.43;;;15.90;99.90;;;;;;2620002;54;20374;-72
2021/09/21 21:19:30;;;;;;;0.60;0.40;;;16.10;99.90;;;;;;2620272;54;20382;-74
2021/09/21 21:21:56;;;;;;;1.80;0.40;;;16.10;99.90;;;;;;2619316;47;20379;-73
2021/09/21 21:24:22;;;;;;;1.20;0.40;;;16.20;99.90;;;;;;2620458;54;20354;-74
2021/09/21 21:26:49;;;;;;;0.80;0.40;;;16.20;99.90;;;;;;2621528;39;20723;-73
2021/09/21 21:29:15;;;;;;;0.95;0.50;;;16.20;99.90;;;;;;2620169;54;20362;-72
2021/09/21 21:31:41;;;;;;;0.75;0.47;;;16.20;99.90;;;;;;2619916;39;20722;-72
2021/09/21 21:34:07;;;;;;;0.90;0.45;;;16.20;99.90;;;;;;2619164;47;20347;-72
2021/09/21 21:36:36;;;;;;;1.33;0.40;;;16.20;99.90;;;;;;2619869;54;20343;-72
2021/09/21 21:39:03;;;;;;;1.08;0.50;;;16.10;99.90;;;;;;2619131;46;20351;-72
2021/09/21 21:41:29;;;;;;;0.97;0.40;;;16.10;99.90;;;;;;2619924;54;20440;-73
2021/09/21 21:43:55;;;;;;;1.10;0.43;;;16.10;99.90;;;;;;2619220;46;20877;-74
2021/09/21 21:46:21;;;;;;;1.00;0.70;;;16.10;99.90;;;;;;2619949;46;20378;-74
2021/09/21 21:48:47;;;;;;;0.70;0.43;;;16.10;99.90;;;;;;2622033;54;20351;-74
2021/09/21 21:51:14;;;;;;;1.25;0.40;;;16.00;99.90;;;;;;2620026;47;20334;-72
2021/09/21 21:53:42;;;;;;;0.60;0.30;;;15.90;99.90;;;;;;2620261;54;20342;-72
2021/09/21 21:56:09;;;;;;;1.98;0.50;;;16.00;99.90;;;;;;2621229;54;20399;-73
2021/09/21 21:58:35;;;;;;;1.48;0.35;;;16.10;99.90;;;;;;2620886;54;20355;-73
2021/09/21 22:01:01;;;;;;;0.75;0.40;;;16.00;99.90;;;;;;2621935;54;20450;-75
2021/09/21 22:03:28;;;;;;;2.00;0.40;;;16.00;99.90;;;;;;2620667;54;20870;-74
2021/09/21 22:05:54;;;;;;;1.50;0.50;;;16.00;99.90;;;;;;2620592;54;20374;-72
2021/09/21 22:08:20;;;;;;;1.73;0.40;;;15.90;99.90;;;;;;2620756;39;20756;-73
2021/09/21 22:10:49;;;;;;;0.60;0.40;;;15.90;99.90;;;;;;2620087;54;20354;-74
2021/09/21 22:13:16;;;;;;;1.30;0.55;;;15.80;99.90;;;;;;2620108;54;20352;-73
2021/09/21 22:15:42;;;;;;;0.60;0.50;;;15.80;99.90;;;;;;2619527;46;20362;-73
2021/09/21 22:18:08;;;;;;;0.70;0.60;;;15.90;99.90;;;;;;2620352;54;20339;-73
2021/09/21 22:20:39;;;;;;;1.27;0.50;;;15.90;99.90;;;;;;2619929;54;20395;-72
2021/09/21 22:23:06;;;;;;;0.80;0.52;;;15.80;99.90;;;;;;2619322;54;20347;-73
2021/09/21 22:25:32;;;;;;;2.33;0.50;;;15.90;99.90;;;;;;2619097;54;20363;-70
2021/09/21 22:28:01;;;;;;;1.83;0.60;;;15.90;99.90;;;;;;2619002;39;20811;-71
2021/09/21 22:30:28;;;;;;;2.17;0.73;;;15.80;99.90;;;;;;2619390;54;20366;-70
2021/09/21 22:32:54;;;;;;;1.67;0.60;;;15.70;99.90;;;;;;2619047;54;20379;-72
2021/09/21 22:35:20;;;;;;;0.90;0.68;;;15.70;99.90;;;;;;2619104;54;20351;-71
2021/09/21 22:37:46;;;;;;;2.05;0.65;;;15.70;99.90;;;;;;2619101;54;20366;-72
2021/09/21 22:40:13;;;;;;;1.50;0.73;;;15.70;99.90;;;;;;2618905;54;20356;-72
2021/09/21 22:42:39;;;;;;;1.25;1.08;;;15.70;99.90;;;;;;2619143;54;20871;-72
2021/09/21 22:45:10;;;;;;;2.00;0.90;;;15.60;99.90;;;;;;2618892;54;20371;-71
2021/09/21 22:47:37;;;;;;;1.27;0.70;;;15.70;99.90;;;;;;2618859;54;20428;-70
2021/09/21 22:50:05;;;;;;;2.78;0.90;;;15.70;99.90;;;;;;2618894;54;20378;-73
2021/09/21 22:52:31;;;;;;;2.42;0.90;;;15.70;99.90;;;;;;2618749;54;20339;-73
2021/09/21 22:54:57;;;;;;;1.50;0.60;;;15.50;99.90;;;;;;2618988;54;20360;-70
2021/09/21 22:57:23;;;;;;;0.70;0.70;;;15.50;99.90;;;;;;2618661;46;20374;-72
2021/09/21 22:59:49;;;;;;;1.70;0.80;;;15.50;99.90;;;;;;2618903;54;20419;-72
2021/09/21 23:02:18;;;;;;;1.48;0.70;;;15.30;99.90;;;;;;2618885;54;20350;-70
2021/09/21 23:04:44;;;;;;;0.93;0.70;;;15.20;99.90;;;;;;2619088;54;20367;-70
2021/09/21 23:07:11;;;;;;;0.90;0.70;;;15.20;99.90;;;;;;2618643;47;20355;-72
2021/09/21 23:09:37;;;;;;;1.25;0.63;;;15.00;99.90;;;;;;2619067;54;20474;-73
2021/09/21 23:12:03;;;;;;;3.28;0.90;;;15.00;99.90;;;;;;2618791;54;20375;-72
2021/09/21 23:14:29;;;;;;;1.40;0.70;;;14.90;99.90;;;;;;2618844;54;20378;-72
2021/09/21 23:16:56;;;;;;;1.77;0.70;;;14.90;99.90;;;;;;2618846;54;20359;-71
2021/09/21 23:19:25;;;;;;;2.03;0.70;;;14.90;99.90;;;;;;2618875;54;20359;-71
2021/09/21 23:21:51;;;;;;;1.33;0.80;;;15.00;99.90;;;;;;2619932;31;20799;-72
2021/09/21 23:24:18;;;;;;;0.85;0.60;;;14.90;99.90;;;;;;2618181;54;20363;-71
2021/09/21 23:26:44;;;;;;;2.42;0.77;;;14.90;99.90;;;;;;2618859;54;20350;-73
2021/09/21 23:29:14;;;;;;;1.23;0.65;;;14.90;99.90;;;;;;2618810;54;20374;-71
2021/09/21 23:31:40;;;;;;;1.80;0.60;;;14.90;99.90;;;;;;2617598;54;20359;-71
2021/09/21 23:34:06;;;;;;;1.33;0.70;;;14.80;99.90;;;;;;2617549;54;20363;-73
2021/09/21 23:36:35;;;;;;;1.67;0.70;;;14.60;99.90;;;;;;2617700;54;20351;-70
2021/09/21 23:39:02;;;;;;;1.88;0.65;;;14.50;99.90;;;;;;2617647;54;20878;-73
2021/09/21 23:41:28;;;;;;;1.63;0.70;;;14.40;99.90;;;;;;2617674;54;20359;-72
2021/09/21 23:43:54;;;;;;;1.80;0.70;;;14.30;99.90;;;;;;2617547;46;20963;-71
2021/09/21 23:46:22;;;;;;;1.55;0.70;;;14.30;99.90;;;;;;2618412;54;20336;-72
2021/09/21 23:48:49;;;;;;;1.58;0.80;;;14.30;99.90;;;;;;2617733;54;20351;-72
2021/09/21 23:51:15;;;;;;;0.80;0.70;;;14.30;99.90;;;;;;2617488;54;20347;-71
2021/09/21 23:53:44;;;;;;;1.25;0.70;;;14.30;99.90;;;;;;2617437;54;20368;-72
2021/09/21 23:56:10;;;;;;;1.50;0.63;;;14.30;99.90;;;;;;2617392;54;20370;-70
2021/09/21 23:58:36;;;;;;;1.30;0.60;;;14.30;99.90;;;;;;2617416;54;20359;-71
